createdAt,value
2023-04-19T00:00:04.628Z,1.95
2023-04-19T00:02:34.504Z,2.80
2023-04-19T00:07:33.404Z,2.40
2023-04-19T00:10:01.335Z,1.90
2023-04-19T00:12:29.093Z,2.03
2023-04-19T00:14:57.094Z,1.80
2023-04-19T00:17:25.111Z,2.22
2023-04-19T00:19:53.038Z,2.63
2023-04-19T00:22:21.048Z,1.80
2023-04-19T00:24:48.870Z,1.80
2023-04-19T00:27:16.750Z,1.95
2023-04-19T00:29:44.688Z,1.73
2023-04-19T00:32:14.952Z,2.38
2023-04-19T00:34:42.792Z,1.80
2023-04-19T00:37:11.434Z,1.80
2023-04-19T00:39:39.325Z,2.10
2023-04-19T00:42:07.398Z,2.13
2023-04-19T00:44:35.325Z,1.95
2023-04-19T00:47:03.289Z,2.30
2023-04-19T00:49:31.151Z,2.38
2023-04-19T00:51:59.067Z,2.00
2023-04-19T00:54:27.040Z,1.85
2023-04-19T00:56:54.933Z,1.48
2023-04-19T00:59:23.030Z,1.95
2023-04-19T01:01:51.682Z,2.40
2023-04-19T01:04:20.121Z,2.85
2023-04-19T01:06:48.419Z,2.33
2023-04-19T01:09:16.332Z,1.95
2023-04-19T01:11:44.148Z,2.00
2023-04-19T01:14:12.171Z,2.45
2023-04-19T01:16:40.047Z,2.50
2023-04-19T01:19:07.837Z,2.88
2023-04-19T01:21:39.830Z,2.85
2023-04-19T01:24:07.920Z,2.85
2023-04-19T01:26:35.742Z,3.85
2023-04-19T01:29:03.731Z,2.15
2023-04-19T01:31:31.664Z,3.35
2023-04-19T01:33:59.482Z,4.57
2023-04-19T01:36:27.963Z,2.70
2023-04-19T01:38:56.879Z,3.55
2023-04-19T01:41:27.321Z,3.30
2023-04-19T01:43:55.527Z,3.85
2023-04-19T01:46:23.380Z,3.97
2023-04-19T01:48:51.358Z,3.10
2023-04-19T01:51:21.889Z,3.55
2023-04-19T01:53:53.706Z,3.58
2023-04-19T01:56:22.332Z,3.58
2023-04-19T01:58:50.214Z,2.58
2023-04-19T02:01:19.184Z,3.30
2023-04-19T02:03:47.435Z,4.32
2023-04-19T02:06:15.497Z,3.20
2023-04-19T02:08:43.691Z,4.30
2023-04-19T02:11:12.052Z,3.65
2023-04-19T02:13:39.823Z,3.90
2023-04-19T02:16:07.740Z,3.10
2023-04-19T02:18:41.760Z,4.90
2023-04-19T02:21:10.165Z,0.77
2023-04-19T02:23:38.013Z,2.67
2023-04-19T02:26:08.105Z,3.33
2023-04-19T02:31:06.214Z,1.23
2023-04-19T02:33:36.676Z,4.68
2023-04-19T02:36:04.613Z,3.80
2023-04-19T02:38:32.555Z,4.03
2023-04-19T02:41:01.789Z,4.13
2023-04-19T02:43:29.725Z,4.00
2023-04-19T02:45:57.693Z,4.28
2023-04-19T02:48:25.545Z,3.53
2023-04-19T02:50:53.210Z,4.82
2023-04-19T02:53:21.036Z,3.03
2023-04-19T02:55:48.874Z,5.25
2023-04-19T02:58:16.712Z,2.60
2023-04-19T03:00:46.023Z,3.75
2023-04-19T03:03:15.781Z,3.50
2023-04-19T03:05:43.627Z,4.78
2023-04-19T03:08:12.362Z,3.40
2023-04-19T03:10:40.188Z,3.42
2023-04-19T03:13:08.059Z,1.67
2023-04-19T03:15:35.991Z,4.65
2023-04-19T03:18:04.066Z,4.13
2023-04-19T03:20:32.059Z,2.50
2023-04-19T03:22:59.951Z,4.85
2023-04-19T03:25:27.794Z,4.60
2023-04-19T03:27:55.496Z,3.10
2023-04-19T03:30:23.520Z,3.45
2023-04-19T03:32:52.428Z,4.43
2023-04-19T03:35:20.661Z,3.67
2023-04-19T03:37:48.322Z,3.90
2023-04-19T03:40:16.051Z,3.65
2023-04-19T03:42:43.798Z,4.57
2023-04-19T03:45:11.844Z,3.28
2023-04-19T03:47:39.722Z,4.35
2023-04-19T03:50:10.204Z,4.15
2023-04-19T03:52:38.054Z,5.00
2023-04-19T03:55:06.330Z,0.77
2023-04-19T03:57:34.154Z,4.43
2023-04-19T04:00:05.105Z,3.25
2023-04-19T04:02:33.085Z,4.60
2023-04-19T04:05:00.952Z,3.10
2023-04-19T04:07:28.842Z,5.15
2023-04-19T04:09:56.673Z,2.20
2023-04-19T04:12:24.448Z,3.97
2023-04-19T04:14:52.308Z,3.63
2023-04-19T04:17:20.590Z,2.95
2023-04-19T04:19:48.376Z,3.60
2023-04-19T04:22:16.191Z,3.08
2023-04-19T04:24:44.276Z,1.40
2023-04-19T04:27:12.433Z,3.17
2023-04-19T04:29:41.346Z,4.00
2023-04-19T04:32:10.793Z,2.65
2023-04-19T04:34:39.794Z,1.83
2023-04-19T04:37:08.890Z,4.30
2023-04-19T04:39:39.464Z,3.80
2023-04-19T04:42:10.178Z,5.57
2023-04-19T04:44:39.115Z,3.10
2023-04-19T04:47:10.375Z,3.35
2023-04-19T04:49:38.108Z,2.17
2023-04-19T04:52:06.642Z,2.50
2023-04-19T04:54:34.553Z,4.25
2023-04-19T04:57:02.852Z,4.05
2023-04-19T04:59:31.855Z,7.72
2023-04-19T05:02:02.035Z,6.07
2023-04-19T05:04:30.026Z,6.50
2023-04-19T05:06:57.877Z,4.90
2023-04-19T05:09:25.845Z,3.72
2023-04-19T05:11:56.259Z,6.03
2023-04-19T05:14:24.127Z,4.70
2023-04-19T05:16:52.175Z,4.05
2023-04-19T05:19:23.140Z,5.47
2023-04-19T05:21:50.903Z,5.97
2023-04-19T05:24:19.017Z,3.35
2023-04-19T05:26:47.499Z,4.28
2023-04-19T05:29:16.328Z,5.65
2023-04-19T05:31:45.016Z,5.50
2023-04-19T05:34:13.237Z,4.50
2023-04-19T05:36:41.211Z,4.05
2023-04-19T05:39:09.842Z,4.22
2023-04-19T05:41:37.663Z,5.75
2023-04-19T05:44:05.505Z,3.45
2023-04-19T05:46:33.506Z,3.50
2023-04-19T05:49:01.244Z,4.75
2023-04-19T05:51:29.075Z,4.75
2023-04-19T05:53:57.530Z,5.72
2023-04-19T05:56:25.599Z,5.10
2023-04-19T05:58:53.273Z,5.95
2023-04-19T06:01:21.045Z,4.53
2023-04-19T06:03:53.503Z,4.70
2023-04-19T06:06:23.253Z,4.63
2023-04-19T06:08:54.793Z,5.38
2023-04-19T06:11:26.880Z,3.67
2023-04-19T06:13:59.405Z,2.65
2023-04-19T06:16:27.283Z,4.72
2023-04-19T06:18:55.267Z,5.55
2023-04-19T06:21:23.019Z,4.78
2023-04-19T06:23:50.887Z,3.72
2023-04-19T06:26:18.608Z,5.97
2023-04-19T06:28:46.417Z,3.55
2023-04-19T06:31:14.279Z,6.47
2023-04-19T06:33:42.282Z,5.43
2023-04-19T06:36:10.846Z,5.43
2023-04-19T06:38:47.865Z,5.47
2023-04-19T06:41:16.257Z,5.25
2023-04-19T06:43:44.990Z,5.47
2023-04-19T06:46:16.840Z,4.68
2023-04-19T06:48:44.582Z,7.72
2023-04-19T06:51:12.527Z,4.78
2023-04-19T06:53:40.456Z,8.30
2023-04-19T06:56:08.439Z,9.23
2023-04-19T06:58:36.142Z,5.38
2023-04-19T07:01:07.717Z,6.97
2023-04-19T07:03:35.714Z,5.18
2023-04-19T07:06:03.580Z,4.82
2023-04-19T07:08:46.408Z,4.78
2023-04-19T07:11:17.482Z,4.40
2023-04-19T07:13:45.200Z,5.28
2023-04-19T07:16:14.705Z,4.60
2023-04-19T07:18:42.664Z,7.05
2023-04-19T07:21:10.745Z,5.32
2023-04-19T07:23:38.762Z,6.88
2023-04-19T07:26:06.982Z,6.47
2023-04-19T07:28:47.773Z,7.85
2023-04-19T07:31:17.160Z,11.88
2023-04-19T07:33:45.082Z,6.85
2023-04-19T07:36:13.143Z,6.20
2023-04-19T07:38:41.051Z,4.57
2023-04-19T07:41:09.143Z,5.43
2023-04-19T07:43:39.120Z,5.15
2023-04-19T07:46:12.574Z,6.38
2023-04-19T07:48:40.521Z,7.07
2023-04-19T07:51:11.568Z,6.82
2023-04-19T07:53:40.143Z,5.97
2023-04-19T07:56:08.407Z,9.10
2023-04-19T07:58:42.320Z,4.38
2023-04-19T08:01:11.585Z,5.97
2023-04-19T08:03:42.124Z,9.80
2023-04-19T08:06:14.591Z,7.47
2023-04-19T08:08:42.597Z,8.40
2023-04-19T08:11:10.430Z,5.10
2023-04-19T08:13:40.244Z,8.30
2023-04-19T08:18:40.541Z,4.57
2023-04-19T08:21:08.309Z,8.95
2023-04-19T08:23:47.424Z,5.97
2023-04-19T08:26:16.346Z,8.52
2023-04-19T08:28:44.294Z,7.05
2023-04-19T08:31:12.731Z,8.38
2023-04-19T08:33:41.299Z,6.25
2023-04-19T08:36:09.447Z,7.50
2023-04-19T08:38:39.019Z,5.75
2023-04-19T08:41:06.948Z,6.43
2023-04-19T08:43:39.217Z,4.78
2023-04-19T08:46:09.556Z,4.85
2023-04-19T08:48:37.778Z,4.50
2023-04-19T08:51:06.181Z,7.22
2023-04-19T08:53:37.368Z,6.55
2023-04-19T08:56:17.586Z,5.25
2023-04-19T09:01:33.966Z,4.50
2023-04-19T09:04:20.779Z,6.60
2023-04-19T09:06:54.474Z,4.53
2023-04-19T09:11:53.861Z,4.82
2023-04-19T09:14:22.793Z,5.28
2023-04-19T09:16:52.361Z,7.50
2023-04-19T09:19:24.772Z,5.55
2023-04-19T09:21:55.040Z,4.78
2023-04-19T09:27:12.347Z,7.55
2023-04-19T09:29:40.578Z,5.82
2023-04-19T09:32:08.610Z,8.98
2023-04-19T09:34:36.550Z,5.25
2023-04-19T09:37:29.528Z,7.70
2023-04-19T09:40:04.996Z,4.03
2023-04-19T09:48:02.247Z,8.15
2023-04-19T09:50:31.805Z,7.18
2023-04-19T09:55:29.866Z,8.25
2023-04-19T09:58:01.431Z,8.32
2023-04-19T10:00:36.042Z,7.03
2023-04-19T10:03:11.315Z,7.00
2023-04-19T10:05:42.312Z,7.00
2023-04-19T10:08:10.870Z,5.70
2023-04-19T10:10:41.986Z,5.53
2023-04-19T10:15:51.244Z,7.32
2023-04-19T10:18:23.541Z,3.65
2023-04-19T10:20:51.433Z,6.30
2023-04-19T10:23:19.577Z,3.05
2023-04-19T10:25:48.624Z,4.43
2023-04-19T10:28:22.214Z,6.05
2023-04-19T10:31:04.071Z,7.50
2023-04-19T10:33:35.617Z,4.65
2023-04-19T10:36:03.669Z,5.50
2023-04-19T10:38:44.794Z,4.50
2023-04-19T10:41:18.909Z,5.25
2023-04-19T10:43:49.303Z,5.53
2023-04-19T10:46:26.520Z,3.72
2023-04-19T10:49:02.279Z,7.13
2023-04-19T10:51:52.116Z,4.63
2023-04-19T10:54:34.662Z,12.00
2023-04-19T10:57:05.151Z,6.82
2023-04-19T10:59:41.832Z,5.57
2023-04-19T11:02:28.817Z,7.63
2023-04-19T11:04:56.828Z,7.28
2023-04-19T11:07:25.656Z,6.15
2023-04-19T11:09:56.592Z,7.53
2023-04-19T11:12:24.727Z,5.70
2023-04-19T11:14:59.999Z,5.35
2023-04-19T11:17:32.029Z,3.97
2023-04-19T11:19:59.967Z,4.95
2023-04-19T11:22:41.848Z,10.15
2023-04-19T11:25:16.720Z,9.93
2023-04-19T11:27:46.824Z,8.98
2023-04-19T11:30:30.106Z,6.82
2023-04-19T11:32:58.238Z,6.05
2023-04-19T11:35:27.548Z,5.85
2023-04-19T11:37:58.106Z,7.28
2023-04-19T11:40:26.422Z,4.18
2023-04-19T11:42:57.184Z,7.50
2023-04-19T11:45:32.556Z,6.15
2023-04-19T11:48:03.925Z,5.15
2023-04-19T11:50:42.806Z,5.65
2023-04-19T11:53:15.652Z,6.35
2023-04-19T11:55:44.016Z,5.03
2023-04-19T11:58:24.583Z,7.38
2023-04-19T12:00:53.151Z,5.85
2023-04-19T12:03:27.296Z,6.28
2023-04-19T12:06:00.670Z,5.00
2023-04-19T12:08:52.661Z,6.70
2023-04-19T12:11:23.461Z,4.90
2023-04-19T12:14:14.740Z,5.65
2023-04-19T12:16:45.556Z,5.32
2023-04-19T12:19:18.206Z,6.55
2023-04-19T12:21:47.985Z,7.95
2023-04-19T12:24:18.821Z,4.50
2023-04-19T12:27:00.382Z,6.18
2023-04-19T12:29:29.861Z,5.47
2023-04-19T12:31:57.660Z,8.95
2023-04-19T12:34:25.877Z,8.98
2023-04-19T12:36:53.893Z,4.45
2023-04-19T12:39:21.789Z,5.95
2023-04-19T12:41:49.894Z,4.28
2023-04-19T12:44:17.882Z,5.72
2023-04-19T12:46:46.132Z,7.35
2023-04-19T12:49:16.083Z,6.93
2023-04-19T12:51:44.033Z,6.13
2023-04-19T12:54:11.842Z,4.40
2023-04-19T12:56:39.806Z,5.63
2023-04-19T12:59:07.676Z,7.72
2023-04-19T13:01:35.957Z,3.47
2023-04-19T13:04:04.528Z,5.78
2023-04-19T13:06:32.448Z,7.18
2023-04-19T13:09:01.564Z,4.72
2023-04-19T13:11:29.558Z,5.72
2023-04-19T13:13:57.359Z,3.78
2023-04-19T13:16:25.276Z,4.13
2023-04-19T13:18:54.766Z,6.18
2023-04-19T13:21:24.062Z,4.90
2023-04-19T13:23:52.009Z,3.80
2023-04-19T13:26:20.013Z,3.80
2023-04-19T13:28:47.896Z,4.18
2023-04-19T13:31:15.658Z,4.63
2023-04-19T13:33:43.669Z,5.03
2023-04-19T13:36:11.680Z,4.35
2023-04-19T13:38:39.450Z,4.55
2023-04-19T13:41:07.251Z,4.00
2023-04-19T13:43:37.093Z,4.75
2023-04-19T13:46:04.964Z,2.75
2023-04-19T13:48:32.847Z,3.70
2023-04-19T13:51:00.862Z,4.80
2023-04-19T13:53:29.419Z,3.92
2023-04-19T13:55:57.903Z,6.65
2023-04-19T13:58:25.830Z,2.97
2023-04-19T14:00:54.536Z,4.82
2023-04-19T14:03:23.849Z,4.60
2023-04-19T14:05:54.191Z,3.60
2023-04-19T14:08:22.142Z,6.20
2023-04-19T14:10:51.078Z,4.75
2023-04-19T14:13:21.699Z,7.43
2023-04-19T14:15:49.627Z,4.63
2023-04-19T14:18:17.453Z,3.08
2023-04-19T14:20:45.820Z,3.72
2023-04-19T14:23:13.660Z,2.45
2023-04-19T14:25:41.852Z,6.72
2023-04-19T14:28:12.766Z,3.67
2023-04-19T14:30:40.971Z,2.90
2023-04-19T14:33:09.014Z,2.88
2023-04-19T14:35:37.113Z,3.30
2023-04-19T14:38:04.837Z,2.72
2023-04-19T14:40:32.784Z,2.22
2023-04-19T14:43:02.932Z,2.17
2023-04-19T14:45:31.192Z,2.45
2023-04-19T14:47:59.326Z,3.85
2023-04-19T14:50:36.296Z,4.53
2023-04-19T14:53:04.565Z,3.53
2023-04-19T14:55:32.842Z,4.85
2023-04-19T14:58:00.851Z,2.50
2023-04-19T15:00:28.961Z,5.43
2023-04-19T15:02:57.717Z,3.70
2023-04-19T15:05:28.023Z,3.55
2023-04-19T15:07:56.122Z,2.35
2023-04-19T15:10:23.879Z,5.03
2023-04-19T15:12:51.671Z,2.40
2023-04-19T15:15:19.648Z,2.90
2023-04-19T15:17:47.633Z,2.05
2023-04-19T15:20:16.099Z,3.25
2023-04-19T15:22:44.032Z,4.00
2023-04-19T15:25:12.070Z,2.25
2023-04-19T15:27:42.475Z,5.40
2023-04-19T15:30:10.773Z,4.43
2023-04-19T15:32:38.975Z,3.70
2023-04-19T15:35:07.169Z,3.63
2023-04-19T15:37:35.097Z,3.58
2023-04-19T15:40:02.972Z,2.55
2023-04-19T15:42:31.008Z,2.95
2023-04-19T15:44:59.056Z,4.05
2023-04-19T15:47:27.009Z,5.53
2023-04-19T15:49:54.854Z,2.40
2023-04-19T15:52:23.395Z,3.00
2023-04-19T15:54:52.278Z,4.88
2023-04-19T15:57:20.357Z,5.88
2023-04-19T15:59:48.657Z,2.75
2023-04-19T16:02:17.625Z,3.13
2023-04-19T16:04:48.522Z,3.50
2023-04-19T16:07:16.727Z,3.03
2023-04-19T16:09:44.759Z,1.63
2023-04-19T16:12:12.744Z,4.15
2023-04-19T16:14:41.611Z,4.78
2023-04-19T16:17:09.732Z,3.92
2023-04-19T16:19:37.613Z,3.30
2023-04-19T16:22:05.711Z,3.58
2023-04-19T16:24:33.647Z,2.55
2023-04-19T16:27:01.544Z,2.60
2023-04-19T16:29:29.527Z,3.30
2023-04-19T16:31:57.972Z,3.65
2023-04-19T16:34:25.846Z,2.70
2023-04-19T16:36:54.489Z,2.00
2023-04-19T16:39:22.318Z,3.38
2023-04-19T16:41:50.253Z,3.33
2023-04-19T16:44:18.126Z,4.13
2023-04-19T16:46:46.210Z,3.17
2023-04-19T16:49:14.421Z,1.67
2023-04-19T16:51:42.355Z,2.55
2023-04-19T16:54:10.303Z,2.33
2023-04-19T16:56:38.219Z,1.92
2023-04-19T16:59:06.106Z,2.92
2023-04-19T17:01:34.429Z,2.13
2023-04-19T17:04:03.254Z,2.40
2023-04-19T17:06:32.210Z,1.85
2023-04-19T17:09:00.231Z,2.30
2023-04-19T17:11:31.119Z,1.80
2023-04-19T17:13:59.092Z,3.35
2023-04-19T17:16:27.094Z,2.70
2023-04-19T17:18:56.657Z,1.80
2023-04-19T17:21:24.739Z,2.55
2023-04-19T17:23:53.054Z,2.38
2023-04-19T17:26:21.183Z,2.40
2023-04-19T17:28:49.309Z,2.95
2023-04-19T17:31:17.563Z,2.10
2023-04-19T17:33:45.390Z,2.30
2023-04-19T17:36:13.257Z,1.88
2023-04-19T17:38:41.452Z,2.92
2023-04-19T17:41:15.991Z,2.00
2023-04-19T17:43:47.811Z,2.40
2023-04-19T17:46:15.928Z,2.00
2023-04-19T17:48:43.895Z,2.70
2023-04-19T17:51:11.687Z,2.03
2023-04-19T17:53:39.361Z,2.35
2023-04-19T17:56:07.196Z,2.30
2023-04-19T17:58:36.588Z,1.88
2023-04-19T18:01:05.226Z,3.35
2023-04-19T18:03:33.727Z,2.97
2023-04-19T18:06:01.633Z,2.83
2023-04-19T18:08:29.949Z,2.17
2023-04-19T18:10:57.766Z,2.83
2023-04-19T18:13:25.669Z,1.88
2023-04-19T18:15:53.477Z,2.10
2023-04-19T18:18:21.466Z,1.63
2023-04-19T18:20:49.883Z,2.70
2023-04-19T18:23:17.539Z,2.60
2023-04-19T18:25:45.744Z,2.20
2023-04-19T18:28:13.768Z,1.70
2023-04-19T18:30:41.637Z,2.22
2023-04-19T18:33:09.492Z,1.92
2023-04-19T18:35:37.325Z,3.00
2023-04-19T18:38:05.126Z,3.28
2023-04-19T18:40:32.906Z,2.85
2023-04-19T18:43:00.712Z,2.90
2023-04-19T18:45:29.325Z,2.50
2023-04-19T18:48:01.267Z,2.90
2023-04-19T18:50:29.073Z,2.42
2023-04-19T18:52:57.078Z,2.92
2023-04-19T18:55:25.243Z,3.40
2023-04-19T18:57:53.427Z,2.90
2023-04-19T19:00:22.283Z,2.90
2023-04-19T19:02:50.975Z,2.53
2023-04-19T19:05:19.159Z,2.80
2023-04-19T19:07:47.336Z,3.30
2023-04-19T19:10:20.955Z,2.33
2023-04-19T19:12:50.420Z,2.28
2023-04-19T19:15:18.546Z,3.22
2023-04-19T19:17:49.864Z,3.72
2023-04-19T19:20:20.710Z,3.53
2023-04-19T19:22:48.606Z,3.80
2023-04-19T19:25:16.428Z,2.72
2023-04-19T19:27:58.373Z,2.83
2023-04-19T19:30:33.957Z,3.30
2023-04-19T19:33:02.987Z,3.30
2023-04-19T19:35:30.824Z,3.35
2023-04-19T19:37:58.986Z,2.72
2023-04-19T19:40:30.980Z,2.75
2023-04-19T19:43:00.572Z,2.78
2023-04-19T19:45:31.842Z,3.55
2023-04-19T19:48:00.645Z,2.95
2023-04-19T19:53:00.907Z,3.33
2023-04-19T19:55:29.065Z,3.53
2023-04-19T20:03:01.798Z,2.75
2023-04-19T20:05:29.968Z,2.53
2023-04-19T20:08:08.681Z,3.17
2023-04-19T20:10:37.883Z,3.50
2023-04-19T20:13:08.857Z,2.53
2023-04-19T20:15:37.265Z,2.85
2023-04-19T20:18:05.617Z,3.25
2023-04-19T20:20:33.419Z,3.08
2023-04-19T20:23:01.223Z,3.53
2023-04-19T20:25:31.189Z,3.70
2023-04-19T20:30:29.737Z,2.67
2023-04-19T20:32:57.587Z,3.00
2023-04-19T20:35:25.744Z,3.47
2023-04-19T20:37:55.974Z,1.95
2023-04-19T20:40:23.747Z,3.10
2023-04-19T20:42:51.704Z,2.30
2023-04-19T20:45:19.460Z,4.60
2023-04-19T20:47:47.681Z,2.78
2023-04-19T20:50:15.622Z,2.90
2023-04-19T20:52:43.484Z,4.65
2023-04-19T20:55:11.333Z,3.40
2023-04-19T20:57:39.021Z,2.70
2023-04-19T21:00:09.059Z,2.95
2023-04-19T21:02:37.782Z,2.55
2023-04-19T21:05:06.177Z,3.00
2023-04-19T21:07:33.985Z,2.85
2023-04-19T21:10:01.788Z,2.20
2023-04-19T21:12:29.674Z,2.28
2023-04-19T21:14:57.435Z,3.20
2023-04-19T21:17:25.202Z,3.00
2023-04-19T21:19:53.134Z,3.13
2023-04-19T21:22:21.064Z,2.78
2023-04-19T21:24:48.859Z,2.83
2023-04-19T21:27:16.832Z,2.40
2023-04-19T21:29:44.732Z,2.80
2023-04-19T21:32:12.521Z,2.67
2023-04-19T21:34:40.368Z,2.10
2023-04-19T21:37:08.252Z,2.42
2023-04-19T21:39:36.419Z,2.40
2023-04-19T21:42:04.190Z,3.10
2023-04-19T21:44:31.832Z,2.90
2023-04-19T21:46:59.687Z,2.90
2023-04-19T21:49:27.602Z,4.20
2023-04-19T21:51:57.017Z,3.05
2023-04-19T21:54:33.437Z,2.65
2023-04-19T21:57:01.889Z,3.03
2023-04-19T21:59:31.118Z,3.08
2023-04-19T22:01:59.774Z,3.13
2023-04-19T22:04:31.117Z,3.28
2023-04-19T22:07:02.792Z,3.20
2023-04-19T22:09:30.909Z,2.92
2023-04-19T22:11:58.820Z,2.45
2023-04-19T22:14:26.623Z,2.70
2023-04-19T22:16:54.475Z,2.50
2023-04-19T22:19:24.535Z,2.83
2023-04-19T22:21:53.681Z,2.80
2023-04-19T22:24:21.991Z,2.95
2023-04-19T22:26:50.323Z,2.45
2023-04-19T22:29:18.521Z,3.00
2023-04-19T22:31:46.386Z,3.10
2023-04-19T22:34:14.349Z,2.05
2023-04-19T22:36:41.918Z,2.47
2023-04-19T22:39:09.641Z,2.50
2023-04-19T22:41:37.682Z,3.42
2023-04-19T22:44:05.486Z,2.42
2023-04-19T22:46:33.369Z,2.60
2023-04-19T22:49:01.225Z,2.80
2023-04-19T22:51:29.450Z,2.90
2023-04-19T22:53:57.976Z,2.83
2023-04-19T22:56:25.853Z,2.20
2023-04-19T22:58:53.601Z,2.78
2023-04-19T23:01:21.944Z,2.55
2023-04-19T23:03:50.609Z,3.30
2023-04-19T23:06:18.877Z,2.45
2023-04-19T23:08:46.614Z,3.47
2023-04-19T23:11:14.512Z,2.67
2023-04-19T23:13:42.329Z,2.35
2023-04-19T23:16:11.079Z,3.28
2023-04-19T23:18:39.069Z,3.13
2023-04-19T23:21:07.059Z,2.60
2023-04-19T23:23:34.836Z,2.25
2023-04-19T23:26:03.292Z,2.50
2023-04-19T23:28:31.169Z,2.45
2023-04-19T23:30:59.096Z,2.75
2023-04-19T23:33:27.090Z,2.55
2023-04-19T23:35:54.930Z,3.33
2023-04-19T23:38:22.874Z,2.17
2023-04-19T23:40:50.803Z,2.38
2023-04-19T23:43:18.670Z,2.60
2023-04-19T23:45:46.516Z,2.92
2023-04-19T23:48:14.437Z,3.00
2023-04-19T23:50:42.374Z,2.75
2023-04-19T23:53:10.283Z,2.47
2023-04-19T23:55:38.544Z,2.85
2023-04-19T23:58:06.591Z,2.45
